createdAt,value
2022-09-21T00:00:20.333Z,6.45
2022-09-21T00:00:43.153Z,6.38
2022-09-21T00:01:07.264Z,6.43
2022-09-21T00:01:30.718Z,7.00
2022-09-21T00:01:55.740Z,6.40
2022-09-21T00:02:17.653Z,6.32
2022-09-21T00:02:39.675Z,6.50
2022-09-21T00:03:02.387Z,6.30
2022-09-21T00:03:24.084Z,6.65
2022-09-21T00:03:46.975Z,6.07
2022-09-21T00:04:09.778Z,6.55
2022-09-21T00:04:31.511Z,6.15
2022-09-21T00:04:53.229Z,6.35
2022-09-21T00:05:15.164Z,6.57
2022-09-21T00:05:37.394Z,7.35
2022-09-21T00:06:06.620Z,7.72
2022-09-21T00:06:31.102Z,6.85
2022-09-21T00:06:52.852Z,7.18
2022-09-21T00:07:14.591Z,7.25
2022-09-21T00:07:36.450Z,7.03
2022-09-21T00:08:07.052Z,6.47
2022-09-21T00:08:28.755Z,7.05
2022-09-21T00:08:51.345Z,6.72
2022-09-21T00:09:13.127Z,7.00
2022-09-21T00:09:34.874Z,7.00
2022-09-21T00:09:56.905Z,7.15
2022-09-21T00:10:20.302Z,7.10
2022-09-21T00:10:49.158Z,7.53
2022-09-21T00:11:19.649Z,6.85
2022-09-21T00:11:41.658Z,8.00
2022-09-21T00:12:03.541Z,7.65
2022-09-21T00:12:25.356Z,7.72
2022-09-21T00:12:48.799Z,7.75
2022-09-21T00:13:12.831Z,7.50
2022-09-21T00:13:38.110Z,7.47
2022-09-21T00:14:07.500Z,7.78
2022-09-21T00:14:31.308Z,8.70
2022-09-21T00:14:53.305Z,8.70
2022-09-21T00:15:17.952Z,9.57
2022-09-21T00:15:40.611Z,10.43
2022-09-21T00:16:05.949Z,10.10
2022-09-21T00:16:28.834Z,10.45
2022-09-21T00:16:50.841Z,10.40
2022-09-21T00:17:12.612Z,11.07
2022-09-21T00:17:34.881Z,11.40
2022-09-21T00:17:58.062Z,11.80
2022-09-21T00:18:19.765Z,12.52
2022-09-21T00:18:41.722Z,12.68
2022-09-21T00:19:03.895Z,12.50
2022-09-21T00:19:25.703Z,13.05
2022-09-21T00:19:47.527Z,13.18
2022-09-21T00:20:09.740Z,13.05
2022-09-21T00:20:31.458Z,12.93
2022-09-21T00:20:53.230Z,13.37
2022-09-21T00:21:16.120Z,13.90
2022-09-21T00:21:38.667Z,13.98
2022-09-21T00:22:00.383Z,14.05
2022-09-21T00:22:22.137Z,14.40
2022-09-21T00:22:44.487Z,14.60
2022-09-21T00:23:06.206Z,14.57
2022-09-21T00:23:27.970Z,15.35
2022-09-21T00:23:50.934Z,15.90
2022-09-21T00:24:12.978Z,15.77
2022-09-21T00:24:35.250Z,15.63
2022-09-21T00:24:58.085Z,15.88
2022-09-21T00:25:21.257Z,16.25
2022-09-21T00:25:42.982Z,15.80
2022-09-21T00:26:07.637Z,15.60
2022-09-21T00:26:29.612Z,15.80
2022-09-21T00:26:51.467Z,16.58
2022-09-21T00:27:13.449Z,16.60
2022-09-21T00:27:35.727Z,17.05
2022-09-21T00:27:57.541Z,17.02
2022-09-21T00:28:19.381Z,16.60
2022-09-21T00:28:41.759Z,16.83
2022-09-21T00:29:04.498Z,17.55
2022-09-21T00:29:26.249Z,18.05
2022-09-21T00:29:48.861Z,18.00
2022-09-21T00:30:11.732Z,18.60
2022-09-21T00:30:52.180Z,20.13
2022-09-21T00:31:18.266Z,18.45
2022-09-21T00:31:40.377Z,19.30
2022-09-21T00:32:03.421Z,18.92
2022-09-21T00:32:25.262Z,19.25
2022-09-21T00:32:47.487Z,20.08
2022-09-21T00:33:09.348Z,19.67
2022-09-21T00:33:31.309Z,19.92
2022-09-21T00:33:53.997Z,21.95
2022-09-21T00:34:15.890Z,20.63
2022-09-21T00:34:37.945Z,21.67
2022-09-21T00:35:01.244Z,22.52
2022-09-21T00:35:24.128Z,23.25
2022-09-21T00:35:47.095Z,23.92
2022-09-21T00:36:14.797Z,22.80
2022-09-21T00:36:36.574Z,23.77
2022-09-21T00:36:58.535Z,23.35
2022-09-21T00:37:20.613Z,23.80
2022-09-21T00:37:42.564Z,23.95
2022-09-21T00:38:04.265Z,23.52
2022-09-21T00:38:25.977Z,23.27
2022-09-21T00:38:59.439Z,23.52
2022-09-21T00:39:21.372Z,23.08
2022-09-21T00:39:43.232Z,23.60
2022-09-21T00:40:05.505Z,23.73
2022-09-21T00:40:27.343Z,23.50
2022-09-21T00:40:49.177Z,24.52
2022-09-21T00:41:12.586Z,24.33
2022-09-21T00:41:34.949Z,24.13
2022-09-21T00:41:56.658Z,24.65
2022-09-21T00:42:30.465Z,25.15
2022-09-21T00:42:52.410Z,25.75
2022-09-21T00:43:16.314Z,25.63
2022-09-21T00:43:43.335Z,26.02
2022-09-21T00:44:23.799Z,25.00
2022-09-21T00:44:46.071Z,25.98
2022-09-21T00:45:20.927Z,25.70
2022-09-21T00:45:44.503Z,25.13
2022-09-21T00:46:18.310Z,25.85
2022-09-21T00:46:40.686Z,25.98
2022-09-21T00:47:12.733Z,24.52
2022-09-21T00:47:39.230Z,24.98
2022-09-21T00:48:01.140Z,25.58
2022-09-21T00:48:23.518Z,25.15
2022-09-21T00:48:47.404Z,24.70
2022-09-21T00:49:10.230Z,24.85
2022-09-21T00:49:35.028Z,24.48
2022-09-21T00:49:59.228Z,25.35
2022-09-21T00:50:23.801Z,25.23
2022-09-21T00:50:53.731Z,24.03
2022-09-21T00:51:16.214Z,23.83
2022-09-21T00:51:38.374Z,24.23
2022-09-21T00:52:04.302Z,24.52
2022-09-21T00:52:30.327Z,23.65
2022-09-21T00:52:55.602Z,23.88
2022-09-21T00:53:18.396Z,24.02
2022-09-21T00:53:40.975Z,24.48
2022-09-21T00:54:08.752Z,24.23
2022-09-21T00:54:39.748Z,24.33
2022-09-21T00:55:08.355Z,22.90
2022-09-21T00:55:42.929Z,23.08
2022-09-21T00:56:07.882Z,22.05
2022-09-21T00:56:45.108Z,21.20
2022-09-21T00:57:08.080Z,21.65
2022-09-21T00:57:31.855Z,21.35
2022-09-21T00:58:04.973Z,21.55
2022-09-21T00:58:42.892Z,21.38
2022-09-21T00:59:06.777Z,21.73
2022-09-21T00:59:31.245Z,21.48
2022-09-21T00:59:57.679Z,20.13
2022-09-21T01:00:19.511Z,20.27
2022-09-21T01:00:41.768Z,20.92
2022-09-21T01:01:03.625Z,21.27
2022-09-21T01:01:25.771Z,21.17
2022-09-21T01:01:47.918Z,20.27
2022-09-21T01:02:09.941Z,20.48
2022-09-21T01:02:31.664Z,20.20
2022-09-21T01:03:05.433Z,21.38
2022-09-21T01:03:30.026Z,19.98
2022-09-21T01:03:53.479Z,20.48
2022-09-21T01:04:18.957Z,19.50
2022-09-21T01:04:40.686Z,20.73
2022-09-21T01:05:04.768Z,20.65
2022-09-21T01:05:26.973Z,20.00
2022-09-21T01:05:49.023Z,20.58
2022-09-21T01:06:10.816Z,20.42
2022-09-21T01:06:34.174Z,20.42
2022-09-21T01:06:58.906Z,20.15
2022-09-21T01:07:26.315Z,20.02
2022-09-21T01:07:49.389Z,20.40
2022-09-21T01:08:15.696Z,20.42
2022-09-21T01:08:38.223Z,20.73
2022-09-21T01:09:00.536Z,19.98
2022-09-21T01:09:22.810Z,19.25
2022-09-21T01:09:48.946Z,18.88
2022-09-21T01:10:16.827Z,18.95
2022-09-21T01:11:08.369Z,18.30
2022-09-21T01:11:48.498Z,17.65
2022-09-21T01:12:35.079Z,18.67
2022-09-21T01:13:06.018Z,17.98
2022-09-21T01:14:10.328Z,18.67
2022-09-21T01:14:57.283Z,17.08
2022-09-21T01:15:50.913Z,17.50
2022-09-21T01:16:15.825Z,17.75
2022-09-21T01:17:04.908Z,17.92
2022-09-21T01:17:35.559Z,17.05
2022-09-21T01:18:11.139Z,17.23
2022-09-21T01:18:47.747Z,16.63
2022-09-21T01:19:27.824Z,16.80
2022-09-21T01:20:02.858Z,17.20
2022-09-21T01:20:30.636Z,16.38
2022-09-21T01:21:24.143Z,16.55
2022-09-21T01:22:11.347Z,17.10
2022-09-21T01:22:45.500Z,17.52
2022-09-21T01:23:31.115Z,16.98
2022-09-21T01:23:58.683Z,16.08
2022-09-21T01:24:50.991Z,16.17
2022-09-21T01:25:33.945Z,15.82
2022-09-21T01:26:28.486Z,16.67
2022-09-21T01:27:47.271Z,16.08
2022-09-21T01:28:35.419Z,15.90
2022-09-21T01:29:31.683Z,15.13
2022-09-21T01:29:59.971Z,15.15
2022-09-21T01:30:25.887Z,15.45
2022-09-21T01:30:50.395Z,14.88
2022-09-21T01:31:21.435Z,14.23
2022-09-21T01:32:12.037Z,14.35
2022-09-21T01:32:41.478Z,14.60
2022-09-21T01:33:32.786Z,14.13
2022-09-21T01:34:00.333Z,14.18
2022-09-21T01:34:49.622Z,13.23
2022-09-21T01:35:15.472Z,13.05
2022-09-21T01:35:48.648Z,13.00
2022-09-21T01:36:15.598Z,13.15
2022-09-21T01:36:43.032Z,12.40
2022-09-21T01:37:15.700Z,12.55
2022-09-21T01:37:57.593Z,12.15
2022-09-21T01:38:28.329Z,13.18
2022-09-21T01:38:53.560Z,13.38
2022-09-21T01:39:18.641Z,12.90
2022-09-21T01:39:45.440Z,12.85
2022-09-21T01:40:14.942Z,12.15
2022-09-21T01:40:46.855Z,11.90
2022-09-21T01:41:12.082Z,11.57
2022-09-21T01:41:36.577Z,11.52
2022-09-21T01:41:59.909Z,11.85
2022-09-21T01:42:23.211Z,11.30
2022-09-21T01:42:47.211Z,11.93
2022-09-21T01:43:15.012Z,12.18
2022-09-21T01:43:45.162Z,11.93
2022-09-21T01:44:12.749Z,12.30
2022-09-21T01:44:38.267Z,12.18
2022-09-21T01:45:04.342Z,12.05
2022-09-21T01:45:40.762Z,11.85
2022-09-21T01:46:05.097Z,11.90
2022-09-21T01:46:30.673Z,11.93
2022-09-21T01:46:53.958Z,12.15
2022-09-21T01:47:18.398Z,11.52
2022-09-21T01:47:42.298Z,12.20
2022-09-21T01:48:05.110Z,11.90
2022-09-21T01:48:26.955Z,12.00
2022-09-21T01:48:54.630Z,11.80
2022-09-21T01:49:21.867Z,11.73
2022-09-21T01:49:47.172Z,11.20
2022-09-21T01:50:11.863Z,11.63
2022-09-21T01:50:41.872Z,12.03
2022-09-21T01:51:07.393Z,11.52
2022-09-21T01:51:29.642Z,11.13
2022-09-21T01:51:57.345Z,10.95
2022-09-21T01:52:25.832Z,11.70
2022-09-21T01:52:59.768Z,11.50
2022-09-21T01:53:36.051Z,11.00
2022-09-21T01:54:10.863Z,12.07
2022-09-21T01:54:41.923Z,11.38
2022-09-21T01:55:18.884Z,11.82
2022-09-21T01:55:51.600Z,11.82
2022-09-21T01:56:16.383Z,11.75
2022-09-21T01:57:07.437Z,11.43
2022-09-21T01:57:42.436Z,11.57
2022-09-21T01:58:35.258Z,11.60
2022-09-21T01:59:17.816Z,11.50
2022-09-21T01:59:52.171Z,11.35
2022-09-21T02:00:16.034Z,11.40
2022-09-21T02:00:40.324Z,11.75
2022-09-21T02:01:05.465Z,11.10
2022-09-21T02:01:30.256Z,12.00
2022-09-21T02:01:57.812Z,12.43
2022-09-21T02:02:38.965Z,12.15
2022-09-21T02:03:09.764Z,12.50
2022-09-21T02:03:35.188Z,12.18
2022-09-21T02:04:01.937Z,12.10
2022-09-21T02:04:24.373Z,11.35
2022-09-21T02:04:46.608Z,12.00
2022-09-21T02:05:08.862Z,12.38
2022-09-21T02:05:31.165Z,12.05
2022-09-21T02:05:53.792Z,11.75
2022-09-21T02:06:18.040Z,11.43
2022-09-21T02:06:42.600Z,11.48
2022-09-21T02:07:04.836Z,11.93
2022-09-21T02:07:27.633Z,12.15
2022-09-21T02:07:51.308Z,11.35
2022-09-21T02:08:13.652Z,11.75
2022-09-21T02:08:37.693Z,11.93
2022-09-21T02:08:59.599Z,11.45
2022-09-21T02:09:21.428Z,11.47
2022-09-21T02:09:43.265Z,11.85
2022-09-21T02:10:09.479Z,11.43
2022-09-21T02:10:36.402Z,11.60
2022-09-21T02:11:00.812Z,10.95
2022-09-21T02:11:23.206Z,11.18
2022-09-21T02:11:46.130Z,12.10
2022-09-21T02:12:07.935Z,11.52
2022-09-21T02:12:33.185Z,11.90
2022-09-21T02:13:01.219Z,11.50
2022-09-21T02:13:26.943Z,11.85
2022-09-21T02:13:52.544Z,11.85
2022-09-21T02:14:21.211Z,11.52
2022-09-21T02:14:43.342Z,11.63
2022-09-21T02:15:05.543Z,11.27
2022-09-21T02:16:02.627Z,11.30
2022-09-21T02:17:10.581Z,11.32
2022-09-21T02:18:11.195Z,12.10
2022-09-21T02:18:57.636Z,11.52
2022-09-21T02:19:37.390Z,11.43
2022-09-21T02:20:15.370Z,11.70
2022-09-21T02:20:49.200Z,11.77
2022-09-21T02:21:23.427Z,11.57
2022-09-21T02:21:58.000Z,12.32
2022-09-21T02:22:44.903Z,11.43
2022-09-21T02:23:23.264Z,11.27
2022-09-21T02:24:23.114Z,11.23
2022-09-21T02:24:53.195Z,11.98
2022-09-21T02:25:41.526Z,11.55
2022-09-21T02:26:13.310Z,11.30
2022-09-21T02:26:47.383Z,11.65
2022-09-21T02:27:35.691Z,11.77
2022-09-21T02:28:21.481Z,12.40
2022-09-21T02:28:54.890Z,12.13
2022-09-21T02:29:38.690Z,12.65
2022-09-21T02:30:14.132Z,12.32
2022-09-21T02:30:37.011Z,11.93
2022-09-21T02:31:16.113Z,12.02
2022-09-21T02:32:05.412Z,12.20
2022-09-21T02:32:59.099Z,12.02
2022-09-21T02:33:32.502Z,12.40
2022-09-21T02:33:58.636Z,11.55
2022-09-21T02:34:33.532Z,12.48
2022-09-21T02:35:13.139Z,11.88
2022-09-21T02:35:44.706Z,12.07
2022-09-21T02:36:15.289Z,11.63
2022-09-21T02:36:53.467Z,12.45
2022-09-21T02:37:25.038Z,11.77
2022-09-21T02:37:56.904Z,12.77
2022-09-21T02:38:37.178Z,11.85
2022-09-21T02:39:07.432Z,12.27
2022-09-21T02:40:09.680Z,11.55
2022-09-21T02:40:43.600Z,11.32
2022-09-21T02:41:15.337Z,12.02
2022-09-21T02:41:55.423Z,11.73
2022-09-21T02:42:24.901Z,11.80
2022-09-21T02:42:53.992Z,11.80
2022-09-21T02:43:21.682Z,11.68
2022-09-21T02:44:02.573Z,11.95
2022-09-21T02:44:33.701Z,12.15
2022-09-21T02:45:07.343Z,11.65
2022-09-21T02:45:35.101Z,12.00
2022-09-21T02:46:06.358Z,11.23
2022-09-21T02:46:46.515Z,12.00
2022-09-21T02:47:13.054Z,12.25
2022-09-21T02:47:47.773Z,11.98
2022-09-21T02:48:17.324Z,12.00
2022-09-21T02:48:46.399Z,11.85
2022-09-21T02:49:14.049Z,11.60
2022-09-21T02:49:41.262Z,11.40
2022-09-21T02:50:12.990Z,11.45
2022-09-21T02:50:45.383Z,11.55
2022-09-21T02:51:15.012Z,11.48
2022-09-21T02:51:59.097Z,11.80
2022-09-21T02:52:22.369Z,11.32
2022-09-21T02:52:44.682Z,11.35
2022-09-21T02:53:09.825Z,10.88
2022-09-21T02:53:36.829Z,11.90
2022-09-21T02:54:01.260Z,11.18
2022-09-21T02:54:30.832Z,11.57
2022-09-21T02:54:55.124Z,10.80
2022-09-21T02:55:18.268Z,11.68
2022-09-21T02:55:41.099Z,11.77
2022-09-21T02:56:07.196Z,11.57
2022-09-21T02:56:31.009Z,11.68
2022-09-21T02:56:55.622Z,11.88
2022-09-21T02:57:20.421Z,11.63
2022-09-21T02:57:43.158Z,11.50
2022-09-21T02:58:10.156Z,11.25
2022-09-21T02:58:35.916Z,11.27
2022-09-21T02:59:02.595Z,11.27
2022-09-21T02:59:24.311Z,11.50
2022-09-21T02:59:46.293Z,11.85
2022-09-21T03:00:09.101Z,11.20
2022-09-21T03:00:31.154Z,11.85
2022-09-21T03:00:56.404Z,11.10
2022-09-21T03:01:19.441Z,11.48
2022-09-21T03:01:42.231Z,11.52
2022-09-21T03:02:05.501Z,11.68
2022-09-21T03:02:37.269Z,11.93
2022-09-21T03:02:59.038Z,11.35
2022-09-21T03:03:23.329Z,11.50
2022-09-21T03:03:45.041Z,11.52
2022-09-21T03:04:06.856Z,11.55
2022-09-21T03:04:28.726Z,10.90
2022-09-21T03:04:52.113Z,11.13
2022-09-21T03:05:15.864Z,11.20
2022-09-21T03:05:37.581Z,10.77
2022-09-21T03:06:00.616Z,10.50
2022-09-21T03:06:22.404Z,11.25
2022-09-21T03:06:44.234Z,11.35
2022-09-21T03:07:05.921Z,11.15
2022-09-21T03:07:27.632Z,11.40
2022-09-21T03:07:49.405Z,11.70
2022-09-21T03:08:11.436Z,11.77
2022-09-21T03:08:33.449Z,11.13
2022-09-21T03:08:55.227Z,10.80
2022-09-21T03:09:17.246Z,11.32
2022-09-21T03:09:39.011Z,11.85
2022-09-21T03:10:00.862Z,11.65
2022-09-21T03:10:22.589Z,11.82
2022-09-21T03:10:46.150Z,11.85
2022-09-21T03:11:07.907Z,11.27
2022-09-21T03:11:29.687Z,11.43
2022-09-21T03:11:51.941Z,10.88
2022-09-21T03:12:13.880Z,11.05
2022-09-21T03:12:35.718Z,11.23
2022-09-21T03:13:00.196Z,11.68
2022-09-21T03:13:21.995Z,11.57
2022-09-21T03:13:44.699Z,11.75
2022-09-21T03:14:08.389Z,11.40
2022-09-21T03:14:31.622Z,11.20
2022-09-21T03:14:53.622Z,11.25
2022-09-21T03:15:17.701Z,11.68
2022-09-21T03:15:40.505Z,11.75
2022-09-21T03:16:05.335Z,12.23
2022-09-21T03:16:29.120Z,11.82
2022-09-21T03:16:50.932Z,11.80
2022-09-21T03:17:12.664Z,11.43
2022-09-21T03:17:34.957Z,11.38
2022-09-21T03:17:56.932Z,11.38
2022-09-21T03:18:18.639Z,11.43
2022-09-21T03:18:41.891Z,12.05
2022-09-21T03:19:04.661Z,12.35
2022-09-21T03:19:26.792Z,11.07
2022-09-21T03:19:49.092Z,11.38
2022-09-21T03:20:10.794Z,12.10
2022-09-21T03:20:34.085Z,12.00
2022-09-21T03:20:55.844Z,12.27
2022-09-21T03:21:18.113Z,11.70
2022-09-21T03:21:44.292Z,11.57
2022-09-21T03:22:06.602Z,11.95
2022-09-21T03:22:28.341Z,11.40
2022-09-21T03:22:50.068Z,11.57
2022-09-21T03:23:33.332Z,11.75
2022-09-21T03:23:55.240Z,11.82
2022-09-21T03:24:37.048Z,12.27
2022-09-21T03:24:59.886Z,12.57
2022-09-21T03:25:21.602Z,12.57
2022-09-21T03:25:46.564Z,11.75
2022-09-21T03:26:08.992Z,11.50
2022-09-21T03:26:30.947Z,11.10
2022-09-21T03:26:52.660Z,11.73
2022-09-21T03:27:19.698Z,12.48
2022-09-21T03:27:42.693Z,11.85
2022-09-21T03:28:04.592Z,12.18
2022-09-21T03:28:26.668Z,10.82
2022-09-21T03:28:49.963Z,11.00
2022-09-21T03:29:11.696Z,11.77
2022-09-21T03:29:33.648Z,11.70
2022-09-21T03:29:58.849Z,11.63
2022-09-21T03:30:24.914Z,11.95
2022-09-21T03:30:50.378Z,12.05
2022-09-21T03:31:12.432Z,11.82
2022-09-21T03:31:34.577Z,12.23
2022-09-21T03:31:56.604Z,12.05
2022-09-21T03:32:18.568Z,11.48
2022-09-21T03:32:40.711Z,11.60
2022-09-21T03:33:05.924Z,11.38
2022-09-21T03:33:27.633Z,11.45
2022-09-21T03:33:49.698Z,11.25
2022-09-21T03:34:11.425Z,11.15
2022-09-21T03:34:34.294Z,11.00
2022-09-21T03:34:56.049Z,11.23
2022-09-21T03:35:19.352Z,11.57
2022-09-21T03:35:41.255Z,11.77
2022-09-21T03:36:03.287Z,11.43
2022-09-21T03:36:25.067Z,11.18
2022-09-21T03:36:48.907Z,11.40
2022-09-21T03:37:11.516Z,11.65
2022-09-21T03:37:33.228Z,11.60
2022-09-21T03:37:55.296Z,11.68
2022-09-21T03:38:18.091Z,11.70
2022-09-21T03:38:40.028Z,11.40
2022-09-21T03:39:01.918Z,11.63
2022-09-21T03:39:23.962Z,11.90
2022-09-21T03:39:47.488Z,11.43
2022-09-21T03:40:10.421Z,12.05
2022-09-21T03:40:33.106Z,12.10
2022-09-21T03:40:57.840Z,11.07
2022-09-21T03:41:19.710Z,11.23
2022-09-21T03:41:41.429Z,11.07
2022-09-21T03:42:04.178Z,11.52
2022-09-21T03:42:25.946Z,11.60
2022-09-21T03:42:47.702Z,11.52
2022-09-21T03:43:09.448Z,11.32
2022-09-21T03:43:31.554Z,11.57
2022-09-21T03:43:53.549Z,11.77
2022-09-21T03:44:17.672Z,11.20
2022-09-21T03:44:41.101Z,11.30
2022-09-21T03:45:02.888Z,11.17
2022-09-21T03:45:26.174Z,11.00
2022-09-21T03:45:48.372Z,11.57
2022-09-21T03:46:10.255Z,11.23
2022-09-21T03:46:35.295Z,11.27
2022-09-21T03:47:00.502Z,11.73
2022-09-21T03:47:22.285Z,11.88
2022-09-21T03:47:43.976Z,11.73
2022-09-21T03:48:05.768Z,11.73
2022-09-21T03:48:27.806Z,11.50
2022-09-21T03:48:49.556Z,11.90
2022-09-21T03:49:11.329Z,12.18
2022-09-21T03:49:34.928Z,11.70
2022-09-21T03:49:56.973Z,11.43
2022-09-21T03:50:18.682Z,12.00
2022-09-21T03:50:40.381Z,11.30
2022-09-21T03:51:02.096Z,11.60
2022-09-21T03:51:23.886Z,12.23
2022-09-21T03:51:45.910Z,12.35
2022-09-21T03:52:07.836Z,11.43
2022-09-21T03:52:29.611Z,11.70
2022-09-21T03:52:51.326Z,12.07
2022-09-21T03:53:13.297Z,11.80
2022-09-21T03:53:35.000Z,12.10
2022-09-21T03:53:58.554Z,12.05
2022-09-21T03:54:21.554Z,12.07
2022-09-21T03:54:43.330Z,12.50
2022-09-21T03:55:07.356Z,12.20
2022-09-21T03:55:29.855Z,12.18
2022-09-21T03:55:51.651Z,12.98
2022-09-21T03:56:13.711Z,12.60
2022-09-21T03:56:35.849Z,12.57
2022-09-21T03:56:57.538Z,12.52
2022-09-21T03:57:19.493Z,11.93
2022-09-21T03:57:41.372Z,11.63
2022-09-21T03:58:03.874Z,12.43
2022-09-21T03:58:25.807Z,12.35
2022-09-21T03:58:47.696Z,12.07
2022-09-21T03:59:13.800Z,11.90
2022-09-21T03:59:35.982Z,12.00
2022-09-21T03:59:58.662Z,12.20
2022-09-21T04:00:21.672Z,12.25
2022-09-21T04:00:43.372Z,12.38
2022-09-21T04:01:05.164Z,12.30
2022-09-21T04:01:27.023Z,12.20
2022-09-21T04:01:49.176Z,12.60
2022-09-21T04:02:11.131Z,13.23
2022-09-21T04:02:32.888Z,12.80
2022-09-21T04:02:55.026Z,13.18
2022-09-21T04:03:16.928Z,13.07
2022-09-21T04:03:38.912Z,12.63
2022-09-21T04:04:01.024Z,12.90
2022-09-21T04:04:22.760Z,13.25
2022-09-21T04:04:44.512Z,13.18
2022-09-21T04:05:10.891Z,13.80
2022-09-21T04:05:32.661Z,13.98
2022-09-21T04:05:54.396Z,14.00
2022-09-21T04:06:16.152Z,13.45
2022-09-21T04:06:38.084Z,14.07
2022-09-21T04:06:59.856Z,14.55
2022-09-21T04:07:21.644Z,14.13
2022-09-21T04:07:45.785Z,13.82
2022-09-21T04:08:08.195Z,15.38
2022-09-21T04:08:32.935Z,16.15
2022-09-21T04:08:56.262Z,16.75
2022-09-21T04:09:17.963Z,17.58
2022-09-21T04:09:39.821Z,18.42
2022-09-21T04:10:03.233Z,17.90
2022-09-21T04:10:29.231Z,17.67
2022-09-21T04:10:51.406Z,17.92
2022-09-21T04:11:18.559Z,18.60
2022-09-21T04:11:40.746Z,17.42
2022-09-21T04:12:02.777Z,18.25
2022-09-21T04:12:24.520Z,18.75
2022-09-21T04:12:47.287Z,18.70
2022-09-21T04:13:09.705Z,18.00
2022-09-21T04:13:35.125Z,19.30
2022-09-21T04:13:57.032Z,20.17
2022-09-21T04:14:18.859Z,19.25
2022-09-21T04:14:40.588Z,19.80
2022-09-21T04:15:02.644Z,20.65
2022-09-21T04:15:24.491Z,20.73
2022-09-21T04:15:46.203Z,20.63
2022-09-21T04:16:09.692Z,19.75
2022-09-21T04:16:31.711Z,21.15
2022-09-21T04:16:54.227Z,20.48
2022-09-21T04:17:16.028Z,21.60
2022-09-21T04:17:37.994Z,21.40
2022-09-21T04:17:59.718Z,21.50
2022-09-21T04:18:21.992Z,20.52
2022-09-21T04:18:43.740Z,21.25
2022-09-21T04:19:05.725Z,20.85
2022-09-21T04:19:27.615Z,20.73
2022-09-21T04:19:49.355Z,20.67
2022-09-21T04:20:11.179Z,20.63
2022-09-21T04:20:33.189Z,21.77
2022-09-21T04:20:54.898Z,23.25
2022-09-21T04:21:18.398Z,23.42
2022-09-21T04:21:40.295Z,23.70
2022-09-21T04:22:02.247Z,23.63
2022-09-21T04:22:24.892Z,24.67
2022-09-21T04:22:47.773Z,25.25
2022-09-21T04:23:10.100Z,25.63
2022-09-21T04:23:32.807Z,25.92
2022-09-21T04:23:55.039Z,25.35
2022-09-21T04:24:19.353Z,25.55
2022-09-21T04:24:41.083Z,25.52
2022-09-21T04:25:05.199Z,26.73
2022-09-21T04:25:27.993Z,27.23
2022-09-21T04:25:53.003Z,26.15
2022-09-21T04:26:26.851Z,27.42
2022-09-21T04:26:48.976Z,27.70
2022-09-21T04:27:11.341Z,26.73
2022-09-21T04:27:33.926Z,27.67
2022-09-21T04:27:55.888Z,28.33
2022-09-21T04:28:17.855Z,27.23
2022-09-21T04:28:39.576Z,26.90
2022-09-21T04:29:02.167Z,26.02
2022-09-21T04:29:24.089Z,26.45
2022-09-21T04:29:45.878Z,27.77
2022-09-21T04:30:08.751Z,26.83
2022-09-21T04:30:33.246Z,28.27
2022-09-21T04:30:58.864Z,27.77
2022-09-21T04:31:21.369Z,28.00
2022-09-21T04:31:43.179Z,27.58
2022-09-21T04:32:05.798Z,27.20
2022-09-21T04:32:28.178Z,27.25
2022-09-21T04:32:49.917Z,27.15
2022-09-21T04:33:11.587Z,26.30
2022-09-21T04:33:33.281Z,26.75
2022-09-21T04:33:57.074Z,26.10
2022-09-21T04:34:18.869Z,26.67
2022-09-21T04:34:40.677Z,26.58
2022-09-21T04:35:02.674Z,25.88
2022-09-21T04:35:24.409Z,25.70
2022-09-21T04:35:46.239Z,25.58
2022-09-21T04:36:08.008Z,24.77
2022-09-21T04:36:36.412Z,24.23
2022-09-21T04:36:59.092Z,26.17
2022-09-21T04:37:22.886Z,25.30
2022-09-21T04:37:44.634Z,27.02
2022-09-21T04:38:06.344Z,26.27
2022-09-21T04:38:28.095Z,25.23
2022-09-21T04:38:51.000Z,26.52
2022-09-21T04:39:12.755Z,27.75
2022-09-21T04:39:35.374Z,27.52
2022-09-21T04:39:57.050Z,27.40
2022-09-21T04:40:18.856Z,26.45
2022-09-21T04:40:40.885Z,26.88
2022-09-21T04:41:03.629Z,26.70
2022-09-21T04:41:25.636Z,26.98
2022-09-21T04:41:47.701Z,26.23
2022-09-21T04:42:10.681Z,26.85
2022-09-21T04:42:32.599Z,27.08
2022-09-21T04:42:54.911Z,26.50
2022-09-21T04:43:20.764Z,26.85
2022-09-21T04:43:45.589Z,27.00
2022-09-21T04:44:09.142Z,26.60
2022-09-21T04:44:31.217Z,26.58
2022-09-21T04:44:53.008Z,26.80
2022-09-21T04:45:15.000Z,26.13
2022-09-21T04:45:36.960Z,26.75
2022-09-21T04:45:59.043Z,26.20
2022-09-21T04:46:21.292Z,25.95
2022-09-21T04:46:43.037Z,25.83
2022-09-21T04:47:05.126Z,25.95
2022-09-21T04:47:29.040Z,25.52
2022-09-21T04:47:50.748Z,25.55
2022-09-21T04:48:12.554Z,26.10
2022-09-21T04:48:34.634Z,25.50
2022-09-21T04:48:56.530Z,24.63
2022-09-21T04:49:18.313Z,26.27
2022-09-21T04:49:40.117Z,25.73
2022-09-21T04:50:02.121Z,24.75
2022-09-21T04:50:23.970Z,24.95
2022-09-21T04:50:49.829Z,24.95
2022-09-21T04:51:12.712Z,25.58
2022-09-21T04:51:34.604Z,25.27
2022-09-21T04:51:56.367Z,25.23
2022-09-21T04:52:19.258Z,24.45
2022-09-21T04:52:41.157Z,24.90
2022-09-21T04:53:02.967Z,24.80
2022-09-21T04:53:25.020Z,24.52
2022-09-21T04:53:46.731Z,25.02
2022-09-21T04:54:08.436Z,25.35
2022-09-21T04:54:30.415Z,23.73
2022-09-21T04:54:52.939Z,23.67
2022-09-21T04:55:14.799Z,23.55
2022-09-21T04:55:36.585Z,23.63
2022-09-21T04:55:58.352Z,23.52
2022-09-21T04:56:20.427Z,21.50
2022-09-21T04:56:42.417Z,21.83
2022-09-21T04:57:04.312Z,22.25
2022-09-21T04:57:26.167Z,21.80
2022-09-21T04:57:47.868Z,22.30
2022-09-21T04:58:09.931Z,23.15
2022-09-21T04:58:32.330Z,23.38
2022-09-21T04:58:54.104Z,22.70
2022-09-21T04:59:15.872Z,23.42
2022-09-21T04:59:38.106Z,23.15
2022-09-21T05:00:00.061Z,22.27
2022-09-21T05:00:22.241Z,22.80
2022-09-21T05:00:44.019Z,22.63
2022-09-21T05:01:07.326Z,22.65
2022-09-21T05:01:29.429Z,22.15
2022-09-21T05:01:51.257Z,21.10
2022-09-21T05:02:13.025Z,21.38
2022-09-21T05:02:34.999Z,21.33
2022-09-21T05:02:56.717Z,20.88
2022-09-21T05:03:19.287Z,20.85
2022-09-21T05:03:41.043Z,20.90
2022-09-21T05:04:03.253Z,20.17
2022-09-21T05:04:25.040Z,20.33
2022-09-21T05:04:50.784Z,20.55
2022-09-21T05:05:13.552Z,19.48
2022-09-21T05:05:35.284Z,19.42
2022-09-21T05:05:58.468Z,20.02
2022-09-21T05:06:20.468Z,19.05
2022-09-21T05:06:42.322Z,18.50
2022-09-21T05:07:04.322Z,18.80
2022-09-21T05:07:26.008Z,18.73
2022-09-21T05:07:47.975Z,18.75
2022-09-21T05:08:09.959Z,18.35
2022-09-21T05:08:50.155Z,17.30
2022-09-21T05:09:30.674Z,18.40
2022-09-21T05:10:04.532Z,17.52
2022-09-21T05:10:26.320Z,17.70
2022-09-21T05:10:48.247Z,17.30
2022-09-21T05:11:24.432Z,17.20
2022-09-21T05:11:46.433Z,17.40
2022-09-21T05:12:08.165Z,16.75
2022-09-21T05:12:34.242Z,16.83
2022-09-21T05:12:55.978Z,16.40
2022-09-21T05:13:19.797Z,16.00
2022-09-21T05:13:42.152Z,15.90
2022-09-21T05:14:03.987Z,15.70
2022-09-21T05:14:25.699Z,16.27
2022-09-21T05:14:47.616Z,15.43
2022-09-21T05:15:11.377Z,15.40
2022-09-21T05:15:33.187Z,15.50
2022-09-21T05:15:55.157Z,15.20
2022-09-21T05:16:18.283Z,15.60
2022-09-21T05:16:40.131Z,14.93
2022-09-21T05:17:01.847Z,14.27
2022-09-21T05:17:23.992Z,14.90
2022-09-21T05:17:46.897Z,15.80
2022-09-21T05:18:08.926Z,14.95
2022-09-21T05:18:30.688Z,15.52
2022-09-21T05:18:57.169Z,14.60
2022-09-21T05:19:19.032Z,14.63
2022-09-21T05:19:41.355Z,14.80
2022-09-21T05:20:03.890Z,14.70
2022-09-21T05:20:25.612Z,14.07
2022-09-21T05:20:54.984Z,13.55
2022-09-21T05:21:16.926Z,14.48
2022-09-21T05:21:38.937Z,14.20
2022-09-21T05:22:00.674Z,13.98
2022-09-21T05:22:23.059Z,14.40
2022-09-21T05:22:44.923Z,14.38
2022-09-21T05:23:06.828Z,14.13
2022-09-21T05:23:30.020Z,13.40
2022-09-21T05:23:52.316Z,13.90
2022-09-21T05:24:14.133Z,13.98
2022-09-21T05:24:35.849Z,14.15
2022-09-21T05:24:57.639Z,13.90
2022-09-21T05:25:19.371Z,14.73
2022-09-21T05:25:41.111Z,13.95
2022-09-21T05:26:03.295Z,13.70
2022-09-21T05:26:25.612Z,13.57
2022-09-21T05:26:47.318Z,14.52
2022-09-21T05:27:09.254Z,13.95
2022-09-21T05:27:31.183Z,14.23
2022-09-21T05:27:52.905Z,13.43
2022-09-21T05:28:15.168Z,14.10
2022-09-21T05:28:40.115Z,13.77
2022-09-21T05:29:02.591Z,13.77
2022-09-21T05:29:24.715Z,13.47
2022-09-21T05:29:46.972Z,13.30
2022-09-21T05:30:10.460Z,13.27
2022-09-21T05:30:32.621Z,13.30
2022-09-21T05:31:16.791Z,13.40